Pagrindinis puslapis
METAR-TAF:

METAR-TAF

Oro uostai :

Waco, Teksasas, Jungtinės Amerikos Valstijos

platuma: 31-37-02N, ilguma: 097-13-40W, Aukštis: 157 m

Dabartinis oras

Ataskaita buvo paskelbta 47 minutes, ne 07:51 UTC
Ramus vėjas
Temperatūra 13°C
Drėgmė 77%
Slėgis 1019 hPa
Matomumas: 16.1 km
Giedras dangus

METAR: KACT 010751Z AUTO 00000KT 10SM CLR 13/09 A3008 RMK AO2 SLP181 T01280089 $

Laikas: 03:38 (08:38 UTC)

Prognozė

Ataskaita buvo paskelbta 3 valandos ir 18 minutes, ne 05:20 UTC
Prognozė galioja nuo 01 metu 06 UTC su 02 metu 06 UTC
Vėjas 6 kt iš Pietų/Pietvakarių
Matomumas: 10 km
Giedras dangus
Nuo 01 metu 1100 UTC
Vėjas 4 kt iš Šiaurės/Šiaurės Vakarų
Matomumas: 10 km
Giedras dangus
Nuo 01 metu 1700 UTC
Vėjas 9 kt iš Šiaurės Rytų
Matomumas: 10 km
Giedras dangus

TAF: KACT 010520Z 0106/0206 21006KT P6SM SKC FM011100 33004KT P6SM SKC FM011700 05009KT P6SM SKC

Orai ataskaitas ir orų prognozės (METAR, TAF).

turimą stotys yra geltonos ir raudonos taškus žemėlapyje.

Perkelti pele per norėdami pamatyti stoties vardą.

Tada spustelėkite, norėdami matyti oro stebėjimo ir prognozės.

Norėdami pakeisti žemėlapį: spustelėkite ant žalios mygtukų su juodo kryžiaus žemyn,; žalią mygtuką su brūkšneliu, jei norite nutolinti; arba žalių rodyklių gretimoms žemėlapius.


METAR-TAF: